Alfred, New York
Current Conditions -  °F | °C
As of 9:56 PM on Thursday 27 Nov 2014 (Local Time) from KELZ Reporting Station
Light Snow Light Snow  
Wind Chill: 17°   Ceiling: 1800
Heat Index: 27°   Visibility: 8mi
Dew Point: 22°   Wind: 10mph
Humidity: 81%   Direction: 270°W
Pressure: 30.02"   Gusts: NA
Location:  42.25°N, 77.79°W
Report Text: KELZ 280256Z AUTO 27009KT 8SM -SN BKN018 BKN025 OVC035 M03/M06 A3002 RMK AO2 SLP193 P0000 60000 T10281056 50002
Loading
Personal Weather Stations






























Interactive Weather Map New forecast layout! Learn more

10-Day Weather Forecast

Advertisements
Track Severe Weather on mobile